Airfield :
LOGIN :

Register | Disclaimer

   EN    FR    IT 

 










Legend :    VFR   Marginal VFR   IFR   Intensive IFR   Very Intensive IFR
Visi :
Ceiling :
>= 8 km
>= 3000ft
5 to 8 km
1000 to 3000 ft
1500m to 5 km
500 to 1000 ft
800 to 1500m
200 to 500 ft
< 800m
< 200 ft
Symbols :   Thunderstorms  Fog  Heavy snow  Heavy precipitations  Wind > 20 kt
SIGMETs :     Misc.  Thunderstorms  Icing  Turbulence  Mountain Waves  Volcanic Ashes







- Airport Elevation : 65 ft
- IATA code : PIK
- Download approach charts


EGPK - Glasgow Prestwick

CURRENT METAR :
  • 221020Z 05008KT 9999 -RA FEW020 SCT035 16/15 Q1001

EXPIRED METARs :
  • 220950Z 05007KT 9999 FEW020 SCT035 16/14 Q1001
  • 220920Z 08006KT 040V100 9999 -DZ FEW020 SCT035 16/14 Q1002
  • 220850Z 07008KT 9999 -DZ FEW020 SCT035 16/14 Q1002
  • 220820Z 06002KT 9000 FEW020 SCT035 15/13 Q1002
  • 220750Z 04006KT 9000 -DZ SCT020 SCT035 15/12 Q1001

TAF TAF EGPK
Valid from the 22 at 06:00 until the 23 at 06:00 UTC


220504Z 2206/2306 06010KT 9999 FEW040
PROB30
TEMPO 2206/2210 6000 SHRA
TEMPO 2210/2224 6000 SHRA BKN012
PROB40
TEMPO 2210/2212 3000 +SHRA
BECMG 2212/2215 18006KT
PROB30
TEMPO 2215/2218 3000 +SHRA BKN008
PROB40
TEMPO 2300/2306 BKN008
No reported NOTAMs for that airfield.



MET'MAP, your aeronautical weather chart ! - Copyright ORBIFLY December 2007 - Disclaimer

ORBIFLY MET'MAP TEAM :

Programming & Development : Alexandra Zaïnal
Concept & Development : Baudouin d'Aumeries
Co-Development & Prog : Marc-Olivier Méhu
Technical & hardware support : Manuel Goepfert

Contact : metmap@orbifly.com




SOURCES & CREDITS :

   NOAA